createdAt,value
2022-08-08T00:00:52.140Z,15.70
2022-08-08T00:03:13.158Z,15.70
2022-08-08T00:06:07.178Z,15.60
2022-08-08T00:08:49.208Z,15.50
2022-08-08T00:11:46.475Z,15.50
2022-08-08T00:14:59.944Z,15.50
2022-08-08T00:17:58.594Z,15.40
2022-08-08T00:20:44.577Z,15.40
2022-08-08T00:23:42.822Z,15.30
2022-08-08T00:26:29.306Z,15.30
2022-08-08T00:29:15.040Z,15.30
2022-08-08T00:32:21.409Z,15.20
2022-08-08T00:35:18.650Z,15.20
2022-08-08T00:38:31.426Z,15.20
2022-08-08T00:42:09.180Z,15.20
2022-08-08T00:45:27.284Z,15.20
2022-08-08T00:48:36.485Z,15.10
2022-08-08T00:51:51.102Z,15.10
2022-08-08T00:55:06.506Z,15.10
2022-08-08T00:58:31.927Z,15.10
2022-08-08T01:01:29.268Z,15.00
2022-08-08T01:05:09.430Z,15.00
2022-08-08T01:08:46.770Z,14.90
2022-08-08T01:12:04.366Z,14.90
2022-08-08T01:15:37.234Z,14.80
2022-08-08T01:19:13.863Z,14.70
2022-08-08T01:22:47.002Z,14.70
2022-08-08T01:26:11.378Z,14.50
2022-08-08T01:29:35.362Z,14.50
2022-08-08T01:33:24.270Z,14.30
2022-08-08T01:36:53.329Z,14.30
2022-08-08T01:39:41.761Z,14.20
2022-08-08T01:42:36.204Z,14.20
2022-08-08T01:45:34.308Z,14.20
2022-08-08T01:48:30.778Z,14.20
2022-08-08T01:52:44.081Z,14.10
2022-08-08T01:55:46.330Z,14.10
2022-08-08T01:58:12.585Z,14.00
2022-08-08T02:00:57.557Z,14.00
2022-08-08T02:03:56.090Z,14.00
2022-08-08T02:07:01.970Z,13.90
2022-08-08T02:10:03.920Z,13.80
2022-08-08T02:12:53.422Z,13.80
2022-08-08T02:15:38.508Z,13.70
2022-08-08T02:18:18.949Z,13.70
2022-08-08T02:21:20.254Z,13.70
2022-08-08T02:24:01.490Z,13.70
2022-08-08T02:26:46.254Z,13.70
2022-08-08T02:29:56.330Z,13.70
2022-08-08T02:33:01.558Z,13.70
2022-08-08T02:36:12.589Z,13.70
2022-08-08T02:39:40.766Z,13.70
2022-08-08T02:44:38.225Z,13.70
2022-08-08T02:46:58.526Z,13.70
2022-08-08T02:50:18.218Z,13.60
2022-08-08T02:53:38.216Z,13.60
2022-08-08T02:56:48.817Z,13.50
2022-08-08T03:00:33.556Z,13.60
2022-08-08T03:05:04.163Z,13.50
2022-08-08T03:08:01.469Z,13.60
2022-08-08T03:11:47.433Z,13.60
2022-08-08T03:16:00.662Z,13.60
2022-08-08T03:18:08.826Z,13.50
2022-08-08T03:20:47.058Z,13.50
2022-08-08T03:23:39.676Z,13.50
2022-08-08T03:26:33.581Z,13.50
2022-08-08T03:29:54.638Z,13.40
2022-08-08T03:32:33.053Z,13.20
2022-08-08T03:35:09.547Z,13.10
2022-08-08T03:37:59.370Z,13.10
2022-08-08T03:40:37.727Z,13.00
2022-08-08T03:43:15.856Z,13.00
2022-08-08T03:46:06.716Z,13.10
2022-08-08T03:49:27.978Z,13.00
2022-08-08T03:51:50.709Z,13.00
2022-08-08T03:54:40.547Z,13.00
2022-08-08T03:58:29.945Z,13.10
2022-08-08T04:00:18.250Z,13.10
2022-08-08T04:02:57.659Z,13.10
2022-08-08T04:05:36.631Z,13.10
2022-08-08T04:08:32.980Z,13.00
2022-08-08T04:11:11.152Z,13.00
2022-08-08T04:14:03.043Z,13.10
2022-08-08T04:16:38.935Z,13.10
2022-08-08T04:19:23.950Z,13.10
2022-08-08T04:21:58.487Z,13.10
2022-08-08T04:24:31.912Z,13.10
2022-08-08T04:27:10.330Z,13.20
2022-08-08T04:29:55.445Z,13.20
2022-08-08T04:32:38.108Z,13.10
2022-08-08T04:35:14.703Z,13.20
2022-08-08T04:37:49.151Z,13.30
2022-08-08T04:40:24.258Z,13.20
2022-08-08T04:43:01.179Z,13.20
2022-08-08T04:45:36.628Z,13.20
2022-08-08T04:48:09.958Z,13.30
2022-08-08T04:50:45.957Z,13.20
2022-08-08T04:54:27.250Z,13.30
2022-08-08T04:56:12.858Z,13.30
2022-08-08T04:58:48.452Z,13.30
2022-08-08T05:01:25.418Z,13.40
2022-08-08T05:04:12.696Z,13.40
2022-08-08T05:06:47.349Z,13.50
2022-08-08T05:09:26.131Z,13.60
2022-08-08T05:12:03.317Z,13.70
2022-08-08T05:14:36.422Z,13.70
2022-08-08T05:17:12.562Z,13.80
2022-08-08T05:20:12.535Z,13.90
2022-08-08T05:22:41.744Z,14.00
2022-08-08T05:25:14.896Z,14.00
2022-08-08T05:27:48.689Z,14.50
2022-08-08T05:30:28.594Z,15.40
2022-08-08T05:33:03.825Z,16.00
2022-08-08T05:35:39.691Z,16.50
2022-08-08T05:38:30.461Z,16.90
2022-08-08T05:41:06.079Z,17.50
2022-08-08T05:44:03.869Z,17.80
2022-08-08T05:46:39.332Z,18.20
2022-08-08T05:49:15.973Z,18.40
2022-08-08T05:51:49.759Z,18.70
2022-08-08T05:54:50.150Z,18.90
2022-08-08T05:58:04.092Z,19.40
2022-08-08T06:00:23.702Z,19.30
2022-08-08T06:03:17.377Z,19.80
2022-08-08T06:06:06.005Z,19.90
2022-08-08T06:08:53.378Z,19.90
2022-08-08T06:11:32.562Z,20.30
2022-08-08T06:14:12.958Z,20.30
2022-08-08T06:16:52.001Z,20.40
2022-08-08T06:19:27.491Z,20.70
2022-08-08T06:22:32.075Z,21.10
2022-08-08T06:24:55.175Z,21.20
2022-08-08T06:27:38.806Z,21.30
2022-08-08T06:30:20.396Z,21.80
2022-08-08T06:33:02.379Z,22.30
2022-08-08T06:36:06.063Z,22.60
2022-08-08T06:38:37.997Z,22.70
2022-08-08T06:41:15.348Z,23.00
2022-08-08T06:43:57.104Z,23.20
2022-08-08T06:46:31.258Z,23.20
2022-08-08T06:49:05.922Z,23.20
2022-08-08T06:51:47.110Z,23.50
2022-08-08T06:54:27.143Z,23.70
2022-08-08T06:57:00.940Z,23.40
2022-08-08T07:00:09.964Z,23.60
2022-08-08T07:02:33.440Z,24.10
2022-08-08T07:05:11.855Z,24.50
2022-08-08T07:08:03.045Z,24.50
2022-08-08T07:10:47.726Z,24.60
2022-08-08T07:13:25.230Z,25.10
2022-08-08T07:16:10.371Z,25.60
2022-08-08T07:19:00.816Z,26.20
2022-08-08T07:21:44.605Z,26.50
2022-08-08T07:24:27.630Z,26.50
2022-08-08T07:27:04.854Z,26.40
2022-08-08T07:30:02.090Z,26.40
2022-08-08T07:32:33.743Z,26.40
2022-08-08T07:35:08.776Z,26.80
2022-08-08T07:37:55.914Z,27.50
2022-08-08T07:40:37.919Z,27.30
2022-08-08T07:43:16.804Z,27.20
2022-08-08T07:46:18.403Z,27.40
2022-08-08T07:48:49.400Z,27.40
2022-08-08T07:51:45.199Z,27.60
2022-08-08T07:54:26.759Z,27.70
2022-08-08T07:57:19.786Z,27.60
2022-08-08T08:00:02.210Z,28.20
2022-08-08T08:02:41.696Z,28.20
2022-08-08T08:05:22.444Z,28.80
2022-08-08T08:08:06.436Z,28.90
2022-08-08T08:10:41.102Z,28.80
2022-08-08T08:13:42.669Z,28.80
2022-08-08T08:16:32.225Z,28.90
2022-08-08T08:19:08.290Z,28.70
2022-08-08T08:21:52.275Z,28.90
2022-08-08T08:24:32.467Z,29.10
2022-08-08T08:27:09.426Z,29.60
2022-08-08T08:29:42.641Z,29.30
2022-08-08T08:32:31.795Z,29.00
2022-08-08T08:35:10.797Z,29.10
2022-08-08T08:38:14.674Z,29.50
2022-08-08T08:40:41.524Z,29.70
2022-08-08T08:43:18.787Z,29.60
2022-08-08T08:45:57.377Z,29.50
2022-08-08T08:48:33.175Z,30.00
2022-08-08T08:51:16.608Z,30.20
2022-08-08T08:53:58.894Z,29.80
2022-08-08T08:56:37.482Z,29.90
2022-08-08T08:59:15.705Z,29.90
2022-08-08T09:01:52.707Z,29.20
2022-08-08T09:04:30.858Z,29.60
2022-08-08T09:07:12.244Z,29.90
2022-08-08T09:09:55.102Z,29.60
2022-08-08T09:12:35.319Z,29.60
2022-08-08T09:15:10.195Z,29.60
2022-08-08T09:17:52.290Z,29.70
2022-08-08T09:22:02.132Z,29.70
2022-08-08T09:23:26.241Z,29.60
2022-08-08T09:26:16.095Z,29.90
2022-08-08T09:28:51.529Z,30.20
2022-08-08T09:31:56.730Z,29.30
2022-08-08T09:34:35.438Z,29.10
2022-08-08T09:37:57.181Z,28.80
2022-08-08T09:40:10.594Z,29.00
2022-08-08T09:42:51.824Z,29.40
2022-08-08T09:46:01.198Z,29.10
2022-08-08T09:48:35.346Z,29.30
2022-08-08T09:51:10.473Z,29.30
2022-08-08T09:54:06.839Z,29.60
2022-08-08T09:56:49.395Z,29.60
2022-08-08T10:00:01.195Z,29.30
2022-08-08T10:02:24.839Z,29.50
2022-08-08T10:05:07.008Z,29.40
2022-08-08T10:07:59.759Z,29.20
2022-08-08T10:10:37.973Z,28.40
2022-08-08T10:13:19.315Z,28.10
2022-08-08T10:16:03.687Z,28.30
2022-08-08T10:18:39.601Z,28.60
2022-08-08T10:21:25.181Z,28.50
2022-08-08T10:24:05.180Z,28.70
2022-08-08T10:27:02.441Z,29.00
2022-08-08T10:29:59.303Z,29.00
2022-08-08T10:32:37.281Z,28.50
2022-08-08T10:36:01.952Z,28.80
2022-08-08T10:38:16.336Z,28.50
2022-08-08T10:40:53.910Z,28.50
2022-08-08T10:43:40.337Z,28.40
2022-08-08T10:46:29.549Z,28.30
2022-08-08T10:49:03.744Z,28.80
2022-08-08T10:51:40.878Z,28.90
2022-08-08T10:54:27.077Z,28.80
2022-08-08T10:57:03.865Z,28.70
2022-08-08T10:59:39.550Z,29.00
2022-08-08T11:02:14.084Z,28.80
2022-08-08T11:04:53.289Z,28.60
2022-08-08T11:08:29.970Z,28.60
2022-08-08T11:10:29.229Z,28.70
2022-08-08T11:16:01.047Z,28.80
2022-08-08T11:18:41.499Z,28.60
2022-08-08T11:21:19.572Z,28.80
2022-08-08T11:24:02.018Z,28.80
2022-08-08T11:26:53.932Z,28.60
2022-08-08T11:29:50.823Z,28.60
2022-08-08T11:32:29.359Z,28.10
2022-08-08T11:35:27.226Z,28.30
2022-08-08T11:38:36.710Z,28.30
2022-08-08T11:40:56.667Z,28.20
2022-08-08T11:43:39.117Z,28.30
2022-08-08T11:46:18.332Z,28.10
2022-08-08T11:48:54.354Z,28.10
2022-08-08T11:51:30.675Z,27.90
2022-08-08T11:54:31.529Z,28.00
2022-08-08T11:57:16.961Z,28.10
2022-08-08T12:00:00.303Z,28.10
2022-08-08T12:02:48.913Z,28.20
2022-08-08T12:05:35.227Z,28.10
2022-08-08T12:08:10.288Z,28.20
2022-08-08T12:10:49.027Z,28.20
2022-08-08T12:13:37.640Z,28.30
2022-08-08T12:16:31.827Z,28.10
2022-08-08T12:19:12.913Z,28.10
2022-08-08T12:21:59.150Z,28.20
2022-08-08T12:24:54.046Z,28.40
2022-08-08T12:27:45.115Z,28.30
2022-08-08T12:30:31.649Z,28.10
2022-08-08T12:33:07.719Z,28.20
2022-08-08T12:35:52.887Z,28.20
2022-08-08T12:38:30.304Z,28.10
2022-08-08T12:41:24.495Z,28.10
2022-08-08T12:44:10.485Z,28.10
2022-08-08T12:46:43.576Z,28.10
2022-08-08T12:49:43.010Z,28.30
2022-08-08T12:52:28.929Z,28.20
2022-08-08T12:55:13.676Z,28.40
2022-08-08T12:57:49.841Z,28.40
2022-08-08T13:00:34.025Z,28.30
2022-08-08T13:03:25.439Z,28.40
2022-08-08T13:06:13.827Z,28.40
2022-08-08T13:08:53.632Z,28.50
2022-08-08T13:12:27.981Z,28.40
2022-08-08T13:14:40.380Z,28.40
2022-08-08T13:17:53.999Z,28.20
2022-08-08T13:20:21.978Z,28.20
2022-08-08T13:23:26.844Z,28.10
2022-08-08T13:25:50.190Z,28.20
2022-08-08T13:28:33.246Z,28.30
2022-08-08T13:31:06.785Z,28.40
2022-08-08T13:33:43.381Z,28.40
2022-08-08T13:36:17.187Z,28.60
2022-08-08T13:38:50.358Z,28.50
2022-08-08T13:41:24.182Z,28.40
2022-08-08T13:44:03.053Z,28.50
2022-08-08T13:46:37.977Z,28.30
2022-08-08T13:50:37.384Z,28.40
2022-08-08T13:52:12.499Z,28.40
2022-08-08T13:55:08.255Z,28.40
2022-08-08T13:58:06.309Z,28.30
2022-08-08T14:00:45.198Z,28.40
2022-08-08T14:03:53.847Z,28.30
2022-08-08T14:06:33.105Z,28.30
2022-08-08T14:09:25.303Z,28.40
2022-08-08T14:12:06.150Z,28.50
2022-08-08T14:14:41.718Z,28.40
2022-08-08T14:17:36.446Z,28.50
2022-08-08T14:20:56.408Z,28.40
2022-08-08T14:23:21.537Z,28.20
2022-08-08T14:26:10.777Z,28.10
2022-08-08T14:28:53.486Z,28.10
2022-08-08T14:32:05.806Z,28.10
2022-08-08T14:34:23.252Z,28.00
2022-08-08T14:37:08.436Z,28.10
2022-08-08T14:39:50.188Z,28.20
2022-08-08T14:42:54.676Z,28.50
2022-08-08T14:45:46.747Z,28.90
2022-08-08T14:48:34.789Z,28.70
2022-08-08T14:51:17.655Z,28.60
2022-08-08T14:53:54.657Z,28.50
2022-08-08T14:56:29.639Z,28.40
2022-08-08T14:59:31.643Z,28.20
2022-08-08T15:01:58.873Z,28.10
2022-08-08T15:04:33.435Z,28.10
2022-08-08T15:07:22.483Z,28.00
2022-08-08T15:09:57.813Z,28.10
2022-08-08T15:12:31.768Z,28.30
2022-08-08T15:15:06.871Z,28.50
2022-08-08T15:17:43.410Z,28.50
2022-08-08T15:20:18.654Z,28.50
2022-08-08T15:22:53.549Z,28.60
2022-08-08T15:25:33.133Z,28.30
2022-08-08T15:28:33.383Z,28.30
2022-08-08T15:31:05.177Z,28.40
2022-08-08T15:33:59.328Z,28.20
2022-08-08T15:36:32.403Z,28.30
2022-08-08T15:39:07.005Z,28.00
2022-08-08T15:41:43.797Z,28.30
2022-08-08T15:44:19.527Z,28.20
2022-08-08T15:46:52.822Z,28.20
2022-08-08T15:49:27.637Z,28.20
2022-08-08T15:52:08.514Z,28.30
2022-08-08T15:54:46.218Z,28.50
2022-08-08T15:57:23.057Z,28.60
2022-08-08T16:00:05.341Z,28.40
2022-08-08T16:02:51.119Z,28.30
2022-08-08T16:05:25.558Z,28.30
2022-08-08T16:08:12.286Z,28.20
2022-08-08T16:13:12.267Z,28.10
2022-08-08T16:13:44.989Z,28.10
2022-08-08T16:16:19.314Z,28.30
2022-08-08T16:18:57.877Z,28.30
2022-08-08T16:21:33.414Z,28.20
2022-08-08T16:24:10.172Z,28.30
2022-08-08T16:26:48.989Z,28.10
2022-08-08T16:29:37.541Z,28.10
2022-08-08T16:32:20.029Z,28.00
2022-08-08T16:34:56.152Z,27.90
2022-08-08T16:37:29.713Z,27.90
2022-08-08T16:40:04.147Z,27.80
2022-08-08T16:42:40.311Z,27.80
2022-08-08T16:46:36.125Z,27.70
2022-08-08T16:48:07.138Z,27.70
2022-08-08T16:50:40.376Z,27.60
2022-08-08T16:55:03.014Z,27.70
2022-08-08T16:56:14.073Z,27.60
2022-08-08T16:58:49.635Z,27.50
2022-08-08T17:01:22.807Z,27.80
2022-08-08T17:04:01.211Z,27.70
2022-08-08T17:06:43.220Z,27.60
2022-08-08T17:09:19.665Z,27.40
2022-08-08T17:11:59.287Z,27.40
2022-08-08T17:14:37.510Z,27.30
2022-08-08T17:17:41.358Z,27.30
2022-08-08T17:20:06.711Z,27.30
2022-08-08T17:22:42.611Z,27.30
2022-08-08T17:25:15.844Z,27.10
2022-08-08T17:27:50.497Z,27.10
2022-08-08T17:30:29.373Z,27.10
2022-08-08T17:34:35.673Z,27.00
2022-08-08T17:36:11.353Z,27.00
2022-08-08T17:38:49.539Z,26.90
2022-08-08T17:41:38.529Z,26.90
2022-08-08T17:44:12.450Z,26.80
2022-08-08T17:46:49.344Z,26.80
2022-08-08T17:49:24.964Z,26.70
2022-08-08T17:52:01.992Z,26.70
2022-08-08T17:54:38.000Z,26.60
2022-08-08T17:57:14.236Z,26.50
2022-08-08T17:59:47.676Z,26.50
2022-08-08T18:02:28.643Z,26.40
2022-08-08T18:05:04.470Z,26.30
2022-08-08T18:08:02.691Z,26.20
2022-08-08T18:10:31.917Z,26.20
2022-08-08T18:13:07.415Z,26.10
2022-08-08T18:15:42.215Z,26.00
2022-08-08T18:18:31.573Z,26.00
2022-08-08T18:21:10.857Z,25.90
2022-08-08T18:23:58.964Z,25.80
2022-08-08T18:26:33.832Z,25.70
2022-08-08T18:29:08.940Z,25.60
2022-08-08T18:31:48.881Z,25.50
2022-08-08T18:34:27.072Z,25.30
2022-08-08T18:37:04.714Z,25.20
2022-08-08T18:39:41.239Z,25.00
2022-08-08T18:42:16.540Z,24.90
2022-08-08T18:44:55.048Z,24.70
2022-08-08T18:47:31.462Z,24.70
2022-08-08T18:50:10.060Z,24.50
2022-08-08T18:52:43.224Z,24.40
2022-08-08T18:55:17.170Z,24.30
2022-08-08T18:57:53.533Z,24.20
2022-08-08T19:00:26.667Z,24.00
2022-08-08T19:03:04.171Z,24.00
2022-08-08T19:05:45.350Z,23.80
2022-08-08T19:08:25.497Z,23.70
2022-08-08T19:11:02.881Z,23.50
2022-08-08T19:13:56.640Z,23.40
2022-08-08T19:16:32.119Z,23.30
2022-08-08T19:19:13.130Z,23.10
2022-08-08T19:21:50.102Z,23.00
2022-08-08T19:24:41.788Z,22.90
2022-08-08T19:27:16.402Z,22.80
2022-08-08T19:30:18.125Z,22.60
2022-08-08T19:33:00.616Z,22.40
2022-08-08T19:35:44.457Z,22.30
2022-08-08T19:38:22.221Z,22.20
2022-08-08T19:40:56.257Z,22.10
2022-08-08T19:43:30.493Z,22.10
2022-08-08T19:46:03.891Z,22.00
2022-08-08T19:48:37.144Z,21.90
2022-08-08T19:51:10.270Z,21.80
2022-08-08T19:53:53.399Z,21.70
2022-08-08T19:56:39.833Z,21.60
2022-08-08T19:59:14.124Z,21.50
2022-08-08T20:02:02.976Z,21.40
2022-08-08T20:04:37.616Z,21.40
2022-08-08T20:08:28.313Z,21.30
2022-08-08T20:10:08.680Z,21.20
2022-08-08T20:12:59.278Z,21.00
2022-08-08T20:16:01.125Z,20.90
2022-08-08T20:18:29.677Z,20.90
2022-08-08T20:21:10.862Z,20.80
2022-08-08T20:23:44.250Z,20.70
2022-08-08T20:26:18.686Z,20.60
2022-08-08T20:29:00.610Z,20.50
2022-08-08T20:32:08.158Z,20.50
2022-08-08T20:34:31.688Z,20.40
2022-08-08T20:37:07.244Z,20.30
2022-08-08T20:39:51.314Z,20.30
2022-08-08T20:42:29.078Z,20.20
2022-08-08T20:45:02.507Z,20.10
2022-08-08T20:47:39.176Z,20.00
2022-08-08T20:50:12.943Z,20.00
2022-08-08T20:52:48.325Z,19.90
2022-08-08T20:55:25.630Z,19.80
2022-08-08T20:58:00.629Z,19.80
2022-08-08T21:00:39.806Z,19.70
2022-08-08T21:03:16.885Z,19.70
2022-08-08T21:05:58.816Z,19.60
2022-08-08T21:08:35.929Z,19.60
2022-08-08T21:11:51.216Z,19.50
2022-08-08T21:14:17.515Z,19.40
2022-08-08T21:16:50.611Z,19.40
2022-08-08T21:19:23.764Z,19.40
2022-08-08T21:22:07.409Z,19.30
2022-08-08T21:24:53.008Z,19.10
2022-08-08T21:27:38.824Z,19.10
2022-08-08T21:30:24.478Z,19.10
2022-08-08T21:32:58.003Z,19.00
2022-08-08T21:36:16.020Z,19.00
2022-08-08T21:38:27.529Z,19.00
2022-08-08T21:41:00.879Z,19.00
2022-08-08T21:43:35.635Z,18.90
2022-08-08T21:48:06.185Z,18.80
2022-08-08T21:49:05.522Z,18.70
2022-08-08T21:54:36.672Z,18.60
2022-08-08T21:55:02.399Z,18.50
2022-08-08T21:57:41.701Z,18.30
2022-08-08T22:00:16.887Z,18.30
2022-08-08T22:03:01.652Z,18.30
2022-08-08T22:05:37.461Z,18.30
2022-08-08T22:08:10.985Z,18.20
2022-08-08T22:10:45.232Z,18.20
2022-08-08T22:13:22.414Z,18.10
2022-08-08T22:15:59.642Z,18.10
2022-08-08T22:18:36.070Z,18.10
2022-08-08T22:21:14.186Z,18.10
2022-08-08T22:23:53.541Z,18.10
2022-08-08T22:26:31.021Z,18.00
2022-08-08T22:29:57.118Z,17.90
2022-08-08T22:32:02.602Z,17.80
2022-08-08T22:34:39.862Z,17.90
2022-08-08T22:37:14.748Z,17.80
2022-08-08T22:40:01.011Z,17.70
2022-08-08T22:42:35.300Z,17.70
2022-08-08T22:45:12.757Z,17.60
2022-08-08T22:47:48.947Z,17.60
2022-08-08T22:50:28.420Z,17.50
2022-08-08T22:54:29.171Z,17.40
2022-08-08T22:56:01.439Z,17.40
2022-08-08T22:58:35.282Z,17.40
2022-08-08T23:01:16.700Z,17.40
2022-08-08T23:04:05.757Z,17.30
2022-08-08T23:06:40.239Z,17.30
2022-08-08T23:09:14.991Z,17.30
2022-08-08T23:12:27.943Z,17.30
2022-08-08T23:14:42.616Z,17.30
2022-08-08T23:17:30.241Z,17.30
2022-08-08T23:20:03.496Z,17.20
2022-08-08T23:22:38.012Z,17.20
2022-08-08T23:25:12.999Z,17.10
2022-08-08T23:27:54.358Z,17.10
2022-08-08T23:30:27.997Z,17.00
2022-08-08T23:33:01.136Z,17.00
2022-08-08T23:36:06.644Z,17.00
2022-08-08T23:38:29.423Z,16.90
2022-08-08T23:41:05.131Z,16.80
2022-08-08T23:43:47.753Z,16.90
2022-08-08T23:49:06.560Z,16.90
2022-08-08T23:49:18.985Z,16.90
2022-08-08T23:52:06.287Z,16.90
2022-08-08T23:55:00.106Z,16.80
2022-08-08T23:57:39.189Z,16.70
